sensor_id;sensor_type;location;lat;lon;timestamp;temperature;humidity
31542;DHT22;18152;49.986;8.646;2023-08-20T00:00:20;20.80;99.90
31542;DHT22;18152;49.986;8.646;2023-08-20T00:02:46;20.70;99.90
31542;DHT22;18152;49.986;8.646;2023-08-20T00:05:14;20.70;99.90
31542;DHT22;18152;49.986;8.646;2023-08-20T00:07:40;20.60;99.90
31542;DHT22;18152;49.986;8.646;2023-08-20T00:10:07;20.60;99.90
31542;DHT22;18152;49.986;8.646;2023-08-20T00:12:33;20.60;99.90
31542;DHT22;18152;49.986;8.646;2023-08-20T00:15:00;20.70;99.90
31542;DHT22;18152;49.986;8.646;2023-08-20T00:17:33;20.60;99.90
31542;DHT22;18152;49.986;8.646;2023-08-20T00:20:01;20.60;99.90
31542;DHT22;18152;49.986;8.646;2023-08-20T00:22:30;20.60;99.90
31542;DHT22;18152;49.986;8.646;2023-08-20T00:24:56;20.60;99.90
31542;DHT22;18152;49.986;8.646;2023-08-20T00:27:22;20.50;99.90
31542;DHT22;18152;49.986;8.646;2023-08-20T00:29:47;20.50;99.90
31542;DHT22;18152;49.986;8.646;2023-08-20T00:32:14;20.50;99.90
31542;DHT22;18152;49.986;8.646;2023-08-20T00:34:40;20.50;99.90
31542;DHT22;18152;49.986;8.646;2023-08-20T00:37:05;20.50;99.90
31542;DHT22;18152;49.986;8.646;2023-08-20T00:39:31;20.50;99.90
31542;DHT22;18152;49.986;8.646;2023-08-20T00:41:57;20.40;99.90
31542;DHT22;18152;49.986;8.646;2023-08-20T00:44:23;20.40;99.90
31542;DHT22;18152;49.986;8.646;2023-08-20T00:46:49;20.40;99.90
31542;DHT22;18152;49.986;8.646;2023-08-20T00:49:16;20.30;99.90
31542;DHT22;18152;49.986;8.646;2023-08-20T00:51:42;20.40;99.90
31542;DHT22;18152;49.986;8.646;2023-08-20T00:54:07;20.30;99.90
31542;DHT22;18152;49.986;8.646;2023-08-20T00:56:34;20.30;99.90
31542;DHT22;18152;49.986;8.646;2023-08-20T00:58:59;20.30;99.90
31542;DHT22;18152;49.986;8.646;2023-08-20T01:01:25;20.30;99.90
31542;DHT22;18152;49.986;8.646;2023-08-20T01:03:51;20.30;99.90
31542;DHT22;18152;49.986;8.646;2023-08-20T01:09:48;20.20;99.90
31542;DHT22;18152;49.986;8.646;2023-08-20T01:12:16;20.20;99.90
31542;DHT22;18152;49.986;8.646;2023-08-20T01:14:42;20.10;99.90
31542;DHT22;18152;49.986;8.646;2023-08-20T01:17:08;20.10;99.90
31542;DHT22;18152;49.986;8.646;2023-08-20T01:19:34;20.00;99.90
31542;DHT22;18152;49.986;8.646;2023-08-20T01:24:37;20.00;99.90
31542;DHT22;18152;49.986;8.646;2023-08-20T01:27:28;20.00;99.90
31542;DHT22;18152;49.986;8.646;2023-08-20T01:29:57;20.00;99.90
31542;DHT22;18152;49.986;8.646;2023-08-20T01:32:24;19.90;99.90
31542;DHT22;18152;49.986;8.646;2023-08-20T01:34:49;19.80;99.90
31542;DHT22;18152;49.986;8.646;2023-08-20T01:37:15;19.90;99.90
31542;DHT22;18152;49.986;8.646;2023-08-20T01:39:41;19.90;99.90
31542;DHT22;18152;49.986;8.646;2023-08-20T01:42:07;19.90;99.90
31542;DHT22;18152;49.986;8.646;2023-08-20T01:44:33;19.90;99.90
31542;DHT22;18152;49.986;8.646;2023-08-20T01:46:58;19.90;99.90
31542;DHT22;18152;49.986;8.646;2023-08-20T01:49:24;19.80;99.90
31542;DHT22;18152;49.986;8.646;2023-08-20T01:51:49;19.70;99.90
31542;DHT22;18152;49.986;8.646;2023-08-20T01:54:15;19.70;99.90
31542;DHT22;18152;49.986;8.646;2023-08-20T01:56:40;19.70;99.90
31542;DHT22;18152;49.986;8.646;2023-08-20T01:59:06;19.70;99.90
31542;DHT22;18152;49.986;8.646;2023-08-20T02:01:31;19.60;99.90
31542;DHT22;18152;49.986;8.646;2023-08-20T02:03:57;19.60;99.90
31542;DHT22;18152;49.986;8.646;2023-08-20T02:06:23;19.60;99.90
31542;DHT22;18152;49.986;8.646;2023-08-20T02:08:48;19.50;99.90
31542;DHT22;18152;49.986;8.646;2023-08-20T02:11:14;19.50;99.90
31542;DHT22;18152;49.986;8.646;2023-08-20T02:13:39;19.40;99.90
31542;DHT22;18152;49.986;8.646;2023-08-20T02:16:05;19.40;99.90
31542;DHT22;18152;49.986;8.646;2023-08-20T02:18:32;19.40;99.90
31542;DHT22;18152;49.986;8.646;2023-08-20T02:20:58;19.30;99.90
31542;DHT22;18152;49.986;8.646;2023-08-20T02:23:23;19.30;99.90
31542;DHT22;18152;49.986;8.646;2023-08-20T02:25:49;19.40;99.90
31542;DHT22;18152;49.986;8.646;2023-08-20T02:28:15;19.40;99.90
31542;DHT22;18152;49.986;8.646;2023-08-20T02:30:44;19.30;99.90
31542;DHT22;18152;49.986;8.646;2023-08-20T02:33:10;19.30;99.90
31542;DHT22;18152;49.986;8.646;2023-08-20T02:35:37;19.40;99.90
31542;DHT22;18152;49.986;8.646;2023-08-20T02:38:02;19.40;99.90
31542;DHT22;18152;49.986;8.646;2023-08-20T02:40:28;19.30;99.90
31542;DHT22;18152;49.986;8.646;2023-08-20T02:42:53;19.30;99.90
31542;DHT22;18152;49.986;8.646;2023-08-20T02:45:19;19.30;99.90
31542;DHT22;18152;49.986;8.646;2023-08-20T02:47:45;19.20;99.90
31542;DHT22;18152;49.986;8.646;2023-08-20T02:50:10;19.20;99.90
31542;DHT22;18152;49.986;8.646;2023-08-20T02:52:36;19.20;99.90
31542;DHT22;18152;49.986;8.646;2023-08-20T02:55:01;19.20;99.90
31542;DHT22;18152;49.986;8.646;2023-08-20T02:57:28;19.10;99.90
31542;DHT22;18152;49.986;8.646;2023-08-20T02:59:54;19.10;99.90
31542;DHT22;18152;49.986;8.646;2023-08-20T03:02:19;19.10;99.90
31542;DHT22;18152;49.986;8.646;2023-08-20T03:04:45;19.10;99.90
31542;DHT22;18152;49.986;8.646;2023-08-20T03:07:10;19.10;99.90
31542;DHT22;18152;49.986;8.646;2023-08-20T03:09:36;19.00;99.90
31542;DHT22;18152;49.986;8.646;2023-08-20T03:12:02;18.90;99.90
31542;DHT22;18152;49.986;8.646;2023-08-20T03:14:27;18.90;99.90
31542;DHT22;18152;49.986;8.646;2023-08-20T03:16:53;18.90;99.90
31542;DHT22;18152;49.986;8.646;2023-08-20T03:19:18;18.90;99.90
31542;DHT22;18152;49.986;8.646;2023-08-20T03:21:44;18.90;99.90
31542;DHT22;18152;49.986;8.646;2023-08-20T03:24:09;18.90;99.90
31542;DHT22;18152;49.986;8.646;2023-08-20T03:26:35;19.00;99.90
31542;DHT22;18152;49.986;8.646;2023-08-20T03:29:00;18.90;99.90
31542;DHT22;18152;49.986;8.646;2023-08-20T03:31:26;19.00;99.90
31542;DHT22;18152;49.986;8.646;2023-08-20T03:33:52;19.00;99.90
31542;DHT22;18152;49.986;8.646;2023-08-20T03:36:17;19.00;99.90
31542;DHT22;18152;49.986;8.646;2023-08-20T03:38:43;18.90;99.90
31542;DHT22;18152;49.986;8.646;2023-08-20T03:41:08;18.90;99.90
31542;DHT22;18152;49.986;8.646;2023-08-20T03:43:34;18.90;99.90
31542;DHT22;18152;49.986;8.646;2023-08-20T03:46:00;18.90;99.90
31542;DHT22;18152;49.986;8.646;2023-08-20T03:48:26;18.80;99.90
31542;DHT22;18152;49.986;8.646;2023-08-20T03:50:51;18.70;99.90
31542;DHT22;18152;49.986;8.646;2023-08-20T03:53:17;18.80;99.90
31542;DHT22;18152;49.986;8.646;2023-08-20T03:55:50;18.80;99.90
31542;DHT22;18152;49.986;8.646;2023-08-20T03:58:16;18.70;99.90
31542;DHT22;18152;49.986;8.646;2023-08-20T04:00:44;18.80;99.90
31542;DHT22;18152;49.986;8.646;2023-08-20T04:03:09;18.70;99.90
31542;DHT22;18152;49.986;8.646;2023-08-20T04:05:38;18.60;99.90
31542;DHT22;18152;49.986;8.646;2023-08-20T04:08:05;18.60;99.90
31542;DHT22;18152;49.986;8.646;2023-08-20T04:10:31;18.60;99.90
31542;DHT22;18152;49.986;8.646;2023-08-20T04:12:57;18.60;99.90
31542;DHT22;18152;49.986;8.646;2023-08-20T04:15:23;18.60;99.90
31542;DHT22;18152;49.986;8.646;2023-08-20T04:17:49;18.70;99.90
31542;DHT22;18152;49.986;8.646;2023-08-20T04:20:14;18.60;99.90
31542;DHT22;18152;49.986;8.646;2023-08-20T04:22:40;18.60;99.90
31542;DHT22;18152;49.986;8.646;2023-08-20T04:25:07;18.60;99.90
31542;DHT22;18152;49.986;8.646;2023-08-20T04:27:33;18.60;99.90
31542;DHT22;18152;49.986;8.646;2023-08-20T04:29:58;18.60;99.90
31542;DHT22;18152;49.986;8.646;2023-08-20T04:32:24;18.50;99.90
31542;DHT22;18152;49.986;8.646;2023-08-20T04:34:49;18.50;99.90
31542;DHT22;18152;49.986;8.646;2023-08-20T04:37:18;18.50;99.90
31542;DHT22;18152;49.986;8.646;2023-08-20T04:39:44;18.40;99.90
31542;DHT22;18152;49.986;8.646;2023-08-20T04:42:09;18.40;99.90
31542;DHT22;18152;49.986;8.646;2023-08-20T04:44:35;18.40;99.90
31542;DHT22;18152;49.986;8.646;2023-08-20T04:47:01;18.50;99.90
31542;DHT22;18152;49.986;8.646;2023-08-20T04:49:26;18.50;99.90
31542;DHT22;18152;49.986;8.646;2023-08-20T04:51:54;18.50;99.90
31542;DHT22;18152;49.986;8.646;2023-08-20T04:54:19;18.50;99.90
31542;DHT22;18152;49.986;8.646;2023-08-20T04:56:45;18.60;99.90
31542;DHT22;18152;49.986;8.646;2023-08-20T04:59:10;18.60;99.90
31542;DHT22;18152;49.986;8.646;2023-08-20T05:01:38;18.70;99.90
31542;DHT22;18152;49.986;8.646;2023-08-20T05:04:03;18.80;99.90
31542;DHT22;18152;49.986;8.646;2023-08-20T05:06:29;18.90;99.90
31542;DHT22;18152;49.986;8.646;2023-08-20T05:08:54;18.90;99.90
31542;DHT22;18152;49.986;8.646;2023-08-20T05:11:20;19.00;99.90
31542;DHT22;18152;49.986;8.646;2023-08-20T05:13:48;19.00;99.90
31542;DHT22;18152;49.986;8.646;2023-08-20T05:16:14;19.10;99.90
31542;DHT22;18152;49.986;8.646;2023-08-20T05:18:40;19.20;99.90
31542;DHT22;18152;49.986;8.646;2023-08-20T05:21:05;19.20;99.90
31542;DHT22;18152;49.986;8.646;2023-08-20T05:23:31;19.30;99.90
31542;DHT22;18152;49.986;8.646;2023-08-20T05:25:56;19.40;99.90
31542;DHT22;18152;49.986;8.646;2023-08-20T05:28:22;19.50;99.90
31542;DHT22;18152;49.986;8.646;2023-08-20T05:30:55;19.50;99.90
31542;DHT22;18152;49.986;8.646;2023-08-20T05:33:21;19.60;99.90
31542;DHT22;18152;49.986;8.646;2023-08-20T05:35:47;19.60;99.90
31542;DHT22;18152;49.986;8.646;2023-08-20T05:38:12;19.70;99.90
31542;DHT22;18152;49.986;8.646;2023-08-20T05:40:38;19.80;99.90
31542;DHT22;18152;49.986;8.646;2023-08-20T05:43:04;19.90;99.90
31542;DHT22;18152;49.986;8.646;2023-08-20T05:45:29;20.00;99.90
31542;DHT22;18152;49.986;8.646;2023-08-20T05:47:55;20.20;99.90
31542;DHT22;18152;49.986;8.646;2023-08-20T05:50:20;20.30;99.90
31542;DHT22;18152;49.986;8.646;2023-08-20T05:52:46;20.50;99.90
31542;DHT22;18152;49.986;8.646;2023-08-20T05:55:11;20.60;99.90
31542;DHT22;18152;49.986;8.646;2023-08-20T05:57:37;20.80;99.90
31542;DHT22;18152;49.986;8.646;2023-08-20T06:00:04;20.90;99.90
31542;DHT22;18152;49.986;8.646;2023-08-20T06:02:30;21.00;99.90
31542;DHT22;18152;49.986;8.646;2023-08-20T06:04:55;21.00;99.90
31542;DHT22;18152;49.986;8.646;2023-08-20T06:07:21;21.20;99.90
31542;DHT22;18152;49.986;8.646;2023-08-20T06:09:47;21.40;99.90
31542;DHT22;18152;49.986;8.646;2023-08-20T06:12:12;21.60;99.90
31542;DHT22;18152;49.986;8.646;2023-08-20T06:14:38;21.70;99.90
31542;DHT22;18152;49.986;8.646;2023-08-20T06:17:04;21.80;99.90
31542;DHT22;18152;49.986;8.646;2023-08-20T06:19:29;21.80;99.90
31542;DHT22;18152;49.986;8.646;2023-08-20T06:21:55;22.10;99.90
31542;DHT22;18152;49.986;8.646;2023-08-20T06:24:21;22.20;99.90
31542;DHT22;18152;49.986;8.646;2023-08-20T06:26:46;22.40;99.90
31542;DHT22;18152;49.986;8.646;2023-08-20T06:29:12;22.60;99.90
31542;DHT22;18152;49.986;8.646;2023-08-20T06:31:38;22.90;99.90
31542;DHT22;18152;49.986;8.646;2023-08-20T06:34:04;23.00;99.90
31542;DHT22;18152;49.986;8.646;2023-08-20T06:36:29;23.50;99.90
31542;DHT22;18152;49.986;8.646;2023-08-20T06:38:55;24.10;99.90
31542;DHT22;18152;49.986;8.646;2023-08-20T06:41:20;24.80;99.90
31542;DHT22;18152;49.986;8.646;2023-08-20T06:43:46;25.10;99.90
31542;DHT22;18152;49.986;8.646;2023-08-20T06:46:11;25.20;99.90
31542;DHT22;18152;49.986;8.646;2023-08-20T06:48:37;24.80;99.90
31542;DHT22;18152;49.986;8.646;2023-08-20T06:51:12;24.80;99.90
31542;DHT22;18152;49.986;8.646;2023-08-20T06:53:39;25.10;99.90
31542;DHT22;18152;49.986;8.646;2023-08-20T06:56:09;25.20;99.90
31542;DHT22;18152;49.986;8.646;2023-08-20T06:58:35;25.20;99.90
31542;DHT22;18152;49.986;8.646;2023-08-20T07:01:01;25.70;99.90
31542;DHT22;18152;49.986;8.646;2023-08-20T07:03:41;26.50;99.90
31542;DHT22;18152;49.986;8.646;2023-08-20T07:06:07;27.20;99.90
31542;DHT22;18152;49.986;8.646;2023-08-20T07:08:34;27.20;99.90
31542;DHT22;18152;49.986;8.646;2023-08-20T07:11:00;27.40;99.90
31542;DHT22;18152;49.986;8.646;2023-08-20T07:13:25;26.90;99.90
31542;DHT22;18152;49.986;8.646;2023-08-20T07:15:51;26.70;99.90
31542;DHT22;18152;49.986;8.646;2023-08-20T07:18:17;26.80;99.90
31542;DHT22;18152;49.986;8.646;2023-08-20T07:20:43;26.80;99.90
31542;DHT22;18152;49.986;8.646;2023-08-20T07:23:09;27.00;99.90
31542;DHT22;18152;49.986;8.646;2023-08-20T07:25:39;27.00;99.90
31542;DHT22;18152;49.986;8.646;2023-08-20T07:28:05;26.70;99.90
31542;DHT22;18152;49.986;8.646;2023-08-20T07:30:31;26.40;99.90
31542;DHT22;18152;49.986;8.646;2023-08-20T07:32:57;26.50;99.90
31542;DHT22;18152;49.986;8.646;2023-08-20T07:35:23;26.10;99.90
31542;DHT22;18152;49.986;8.646;2023-08-20T07:37:52;26.20;99.90
31542;DHT22;18152;49.986;8.646;2023-08-20T07:40:18;26.70;99.90
31542;DHT22;18152;49.986;8.646;2023-08-20T07:42:43;27.30;99.90
31542;DHT22;18152;49.986;8.646;2023-08-20T07:45:09;27.60;99.90
31542;DHT22;18152;49.986;8.646;2023-08-20T07:47:36;27.80;99.90
31542;DHT22;18152;49.986;8.646;2023-08-20T07:50:02;28.80;99.90
31542;DHT22;18152;49.986;8.646;2023-08-20T07:52:28;29.10;99.90
31542;DHT22;18152;49.986;8.646;2023-08-20T07:54:53;28.70;99.90
31542;DHT22;18152;49.986;8.646;2023-08-20T07:57:19;28.50;99.90
31542;DHT22;18152;49.986;8.646;2023-08-20T07:59:45;28.60;99.90
31542;DHT22;18152;49.986;8.646;2023-08-20T08:02:11;28.80;99.90
31542;DHT22;18152;49.986;8.646;2023-08-20T08:04:36;28.70;99.90
31542;DHT22;18152;49.986;8.646;2023-08-20T08:07:02;28.80;99.90
31542;DHT22;18152;49.986;8.646;2023-08-20T08:09:30;29.00;99.90
31542;DHT22;18152;49.986;8.646;2023-08-20T08:11:56;29.10;99.90
31542;DHT22;18152;49.986;8.646;2023-08-20T08:14:22;28.90;99.90
31542;DHT22;18152;49.986;8.646;2023-08-20T08:16:48;28.90;99.90
31542;DHT22;18152;49.986;8.646;2023-08-20T08:19:14;29.20;99.90
31542;DHT22;18152;49.986;8.646;2023-08-20T08:21:41;29.60;99.90
31542;DHT22;18152;49.986;8.646;2023-08-20T08:24:06;29.90;99.90
31542;DHT22;18152;49.986;8.646;2023-08-20T08:26:33;30.10;99.90
31542;DHT22;18152;49.986;8.646;2023-08-20T08:28:59;30.30;99.90
31542;DHT22;18152;49.986;8.646;2023-08-20T08:31:25;30.40;99.90
31542;DHT22;18152;49.986;8.646;2023-08-20T08:33:50;30.50;99.90
31542;DHT22;18152;49.986;8.646;2023-08-20T08:36:16;30.30;99.90
31542;DHT22;18152;49.986;8.646;2023-08-20T08:38:45;31.10;99.90
31542;DHT22;18152;49.986;8.646;2023-08-20T08:41:12;31.40;99.90
31542;DHT22;18152;49.986;8.646;2023-08-20T08:43:39;31.30;99.90
31542;DHT22;18152;49.986;8.646;2023-08-20T08:46:07;30.90;99.90
31542;DHT22;18152;49.986;8.646;2023-08-20T08:48:34;30.70;99.90
31542;DHT22;18152;49.986;8.646;2023-08-20T08:51:03;30.70;99.90
31542;DHT22;18152;49.986;8.646;2023-08-20T08:53:30;31.20;99.90
31542;DHT22;18152;49.986;8.646;2023-08-20T08:55:56;30.80;99.90
31542;DHT22;18152;49.986;8.646;2023-08-20T08:58:21;30.90;99.90
31542;DHT22;18152;49.986;8.646;2023-08-20T09:00:48;30.50;99.90
31542;DHT22;18152;49.986;8.646;2023-08-20T09:03:14;30.50;99.90
31542;DHT22;18152;49.986;8.646;2023-08-20T09:05:50;30.90;99.90
31542;DHT22;18152;49.986;8.646;2023-08-20T09:08:23;30.90;99.90
31542;DHT22;18152;49.986;8.646;2023-08-20T09:10:52;30.70;99.90
31542;DHT22;18152;49.986;8.646;2023-08-20T09:13:23;30.60;99.90
31542;DHT22;18152;49.986;8.646;2023-08-20T09:15:53;30.80;99.90
31542;DHT22;18152;49.986;8.646;2023-08-20T09:18:19;30.80;99.90
31542;DHT22;18152;49.986;8.646;2023-08-20T09:20:45;31.20;99.90
31542;DHT22;18152;49.986;8.646;2023-08-20T09:23:12;31.10;99.90
31542;DHT22;18152;49.986;8.646;2023-08-20T09:25:42;31.40;99.90
31542;DHT22;18152;49.986;8.646;2023-08-20T09:28:07;31.00;99.90
31542;DHT22;18152;49.986;8.646;2023-08-20T09:30:33;31.30;99.90
31542;DHT22;18152;49.986;8.646;2023-08-20T09:33:12;31.70;99.90
31542;DHT22;18152;49.986;8.646;2023-08-20T09:35:49;31.30;99.90
31542;DHT22;18152;49.986;8.646;2023-08-20T09:38:15;31.40;99.90
31542;DHT22;18152;49.986;8.646;2023-08-20T09:40:43;31.50;99.90
31542;DHT22;18152;49.986;8.646;2023-08-20T09:43:11;31.70;99.90
31542;DHT22;18152;49.986;8.646;2023-08-20T09:45:39;31.80;99.90
31542;DHT22;18152;49.986;8.646;2023-08-20T09:48:08;31.80;99.90
31542;DHT22;18152;49.986;8.646;2023-08-20T09:50:35;31.40;99.90
31542;DHT22;18152;49.986;8.646;2023-08-20T09:53:26;31.80;99.90
31542;DHT22;18152;49.986;8.646;2023-08-20T09:55:52;31.80;99.90
31542;DHT22;18152;49.986;8.646;2023-08-20T09:58:20;31.60;99.90
31542;DHT22;18152;49.986;8.646;2023-08-20T10:00:51;31.60;99.90
31542;DHT22;18152;49.986;8.646;2023-08-20T10:03:18;31.90;99.90
31542;DHT22;18152;49.986;8.646;2023-08-20T10:05:46;31.80;99.90
31542;DHT22;18152;49.986;8.646;2023-08-20T10:08:14;31.90;99.90
31542;DHT22;18152;49.986;8.646;2023-08-20T10:10:40;31.90;99.90
31542;DHT22;18152;49.986;8.646;2023-08-20T10:13:06;32.30;99.90
31542;DHT22;18152;49.986;8.646;2023-08-20T10:15:32;32.20;99.90
31542;DHT22;18152;49.986;8.646;2023-08-20T10:18:00;32.10;99.90
31542;DHT22;18152;49.986;8.646;2023-08-20T10:20:29;32.20;99.90
31542;DHT22;18152;49.986;8.646;2023-08-20T10:23:00;32.30;99.90
31542;DHT22;18152;49.986;8.646;2023-08-20T10:25:26;32.50;99.90
31542;DHT22;18152;49.986;8.646;2023-08-20T10:27:53;32.50;99.90
31542;DHT22;18152;49.986;8.646;2023-08-20T10:30:23;33.10;99.90
31542;DHT22;18152;49.986;8.646;2023-08-20T10:35:26;32.70;99.90
31542;DHT22;18152;49.986;8.646;2023-08-20T10:38:05;32.80;99.90
31542;DHT22;18152;49.986;8.646;2023-08-20T10:40:56;32.50;99.90
31542;DHT22;18152;49.986;8.646;2023-08-20T10:43:37;32.90;99.90
31542;DHT22;18152;49.986;8.646;2023-08-20T10:46:04;32.50;98.80
31542;DHT22;18152;49.986;8.646;2023-08-20T10:48:32;32.90;99.90
31542;DHT22;18152;49.986;8.646;2023-08-20T10:51:06;33.10;99.00
31542;DHT22;18152;49.986;8.646;2023-08-20T10:53:32;32.80;99.90
31542;DHT22;18152;49.986;8.646;2023-08-20T10:56:07;33.00;99.90
31542;DHT22;18152;49.986;8.646;2023-08-20T10:58:33;33.10;99.90
31542;DHT22;18152;49.986;8.646;2023-08-20T11:01:19;33.00;98.70
31542;DHT22;18152;49.986;8.646;2023-08-20T11:06:21;33.40;98.30
31542;DHT22;18152;49.986;8.646;2023-08-20T11:08:47;33.50;99.70
31542;DHT22;18152;49.986;8.646;2023-08-20T11:11:13;33.90;98.10
31542;DHT22;18152;49.986;8.646;2023-08-20T11:13:38;33.50;99.80
31542;DHT22;18152;49.986;8.646;2023-08-20T11:16:05;33.30;96.60
31542;DHT22;18152;49.986;8.646;2023-08-20T11:18:34;33.20;99.90
31542;DHT22;18152;49.986;8.646;2023-08-20T11:21:01;33.20;97.30
31542;DHT22;18152;49.986;8.646;2023-08-20T11:23:27;32.60;99.90
31542;DHT22;18152;49.986;8.646;2023-08-20T11:25:53;33.60;99.90
31542;DHT22;18152;49.986;8.646;2023-08-20T11:28:19;33.20;98.40
31542;DHT22;18152;49.986;8.646;2023-08-20T11:30:46;33.00;99.90
31542;DHT22;18152;49.986;8.646;2023-08-20T11:33:12;32.80;98.90
31542;DHT22;18152;49.986;8.646;2023-08-20T11:35:37;33.20;98.10
31542;DHT22;18152;49.986;8.646;2023-08-20T11:38:04;33.70;97.00
31542;DHT22;18152;49.986;8.646;2023-08-20T11:40:29;33.70;95.20
31542;DHT22;18152;49.986;8.646;2023-08-20T11:42:55;33.90;93.40
31542;DHT22;18152;49.986;8.646;2023-08-20T11:45:21;34.10;92.40
31542;DHT22;18152;49.986;8.646;2023-08-20T11:47:46;33.40;94.40
31542;DHT22;18152;49.986;8.646;2023-08-20T11:50:12;33.40;95.10
31542;DHT22;18152;49.986;8.646;2023-08-20T11:52:38;33.10;95.90
31542;DHT22;18152;49.986;8.646;2023-08-20T11:55:07;32.80;96.40
31542;DHT22;18152;49.986;8.646;2023-08-20T11:57:33;33.40;95.70
31542;DHT22;18152;49.986;8.646;2023-08-20T12:00:06;34.30;97.60
31542;DHT22;18152;49.986;8.646;2023-08-20T12:02:40;34.30;95.80
31542;DHT22;18152;49.986;8.646;2023-08-20T12:05:07;34.50;96.90
31542;DHT22;18152;49.986;8.646;2023-08-20T12:07:32;35.30;95.90
31542;DHT22;18152;49.986;8.646;2023-08-20T12:09:58;34.70;95.90
31542;DHT22;18152;49.986;8.646;2023-08-20T12:12:24;34.70;96.20
31542;DHT22;18152;49.986;8.646;2023-08-20T12:14:49;34.80;97.80
31542;DHT22;18152;49.986;8.646;2023-08-20T12:17:18;34.20;95.10
31542;DHT22;18152;49.986;8.646;2023-08-20T12:19:44;34.10;96.10
31542;DHT22;18152;49.986;8.646;2023-08-20T12:22:10;34.70;97.60
31542;DHT22;18152;49.986;8.646;2023-08-20T12:24:35;34.40;94.00
31542;DHT22;18152;49.986;8.646;2023-08-20T12:27:01;34.20;96.70
31542;DHT22;18152;49.986;8.646;2023-08-20T12:29:28;34.50;95.50
31542;DHT22;18152;49.986;8.646;2023-08-20T12:31:53;34.50;97.30
31542;DHT22;18152;49.986;8.646;2023-08-20T12:34:19;34.20;92.90
31542;DHT22;18152;49.986;8.646;2023-08-20T12:36:47;33.60;93.00
31542;DHT22;18152;49.986;8.646;2023-08-20T12:39:12;34.50;96.00
31542;DHT22;18152;49.986;8.646;2023-08-20T12:41:39;34.10;94.80
31542;DHT22;18152;49.986;8.646;2023-08-20T12:44:05;33.50;96.10
31542;DHT22;18152;49.986;8.646;2023-08-20T12:46:30;33.90;95.80
31542;DHT22;18152;49.986;8.646;2023-08-20T12:48:56;33.80;95.40
31542;DHT22;18152;49.986;8.646;2023-08-20T12:51:21;33.60;97.50
31542;DHT22;18152;49.986;8.646;2023-08-20T12:53:47;33.80;92.20
31542;DHT22;18152;49.986;8.646;2023-08-20T12:56:13;33.50;98.20
31542;DHT22;18152;49.986;8.646;2023-08-20T12:58:40;33.40;97.30
31542;DHT22;18152;49.986;8.646;2023-08-20T13:01:05;33.30;96.30
31542;DHT22;18152;49.986;8.646;2023-08-20T13:03:31;33.20;95.10
31542;DHT22;18152;49.986;8.646;2023-08-20T13:05:57;33.60;96.00
31542;DHT22;18152;49.986;8.646;2023-08-20T13:08:24;33.60;97.70
31542;DHT22;18152;49.986;8.646;2023-08-20T13:10:54;33.20;96.50
31542;DHT22;18152;49.986;8.646;2023-08-20T13:13:21;33.10;99.60
31542;DHT22;18152;49.986;8.646;2023-08-20T13:15:48;32.90;94.70
31542;DHT22;18152;49.986;8.646;2023-08-20T13:18:14;33.00;96.90
31542;DHT22;18152;49.986;8.646;2023-08-20T13:20:40;32.80;98.50
31542;DHT22;18152;49.986;8.646;2023-08-20T13:23:07;32.70;99.50
31542;DHT22;18152;49.986;8.646;2023-08-20T13:25:33;32.70;99.20
31542;DHT22;18152;49.986;8.646;2023-08-20T13:27:58;32.30;99.90
31542;DHT22;18152;49.986;8.646;2023-08-20T13:30:24;32.40;96.00
31542;DHT22;18152;49.986;8.646;2023-08-20T13:32:49;32.50;97.50
31542;DHT22;18152;49.986;8.646;2023-08-20T13:35:15;32.40;99.40
31542;DHT22;18152;49.986;8.646;2023-08-20T13:37:41;32.30;98.30
31542;DHT22;18152;49.986;8.646;2023-08-20T13:40:07;32.10;99.80
31542;DHT22;18152;49.986;8.646;2023-08-20T13:42:34;31.90;99.90
31542;DHT22;18152;49.986;8.646;2023-08-20T13:45:00;31.70;99.90
31542;DHT22;18152;49.986;8.646;2023-08-20T13:47:26;31.70;99.90
31542;DHT22;18152;49.986;8.646;2023-08-20T13:49:51;32.00;93.80
31542;DHT22;18152;49.986;8.646;2023-08-20T13:52:17;31.90;99.20
31542;DHT22;18152;49.986;8.646;2023-08-20T13:54:42;32.00;96.10
31542;DHT22;18152;49.986;8.646;2023-08-20T13:57:08;32.00;96.20
31542;DHT22;18152;49.986;8.646;2023-08-20T13:59:33;31.80;93.70
31542;DHT22;18152;49.986;8.646;2023-08-20T14:01:59;32.00;95.10
31542;DHT22;18152;49.986;8.646;2023-08-20T14:04:25;32.00;94.20
31542;DHT22;18152;49.986;8.646;2023-08-20T14:06:50;31.80;94.10
31542;DHT22;18152;49.986;8.646;2023-08-20T14:09:16;31.90;95.00
31542;DHT22;18152;49.986;8.646;2023-08-20T14:11:45;31.60;93.00
31542;DHT22;18152;49.986;8.646;2023-08-20T14:14:11;31.70;94.90
31542;DHT22;18152;49.986;8.646;2023-08-20T14:16:36;31.50;92.80
31542;DHT22;18152;49.986;8.646;2023-08-20T14:19:02;31.60;98.10
31542;DHT22;18152;49.986;8.646;2023-08-20T14:21:28;31.40;97.10
31542;DHT22;18152;49.986;8.646;2023-08-20T14:23:53;31.40;95.00
31542;DHT22;18152;49.986;8.646;2023-08-20T14:26:19;31.40;94.40
31542;DHT22;18152;49.986;8.646;2023-08-20T14:28:45;31.10;93.50
31542;DHT22;18152;49.986;8.646;2023-08-20T14:31:10;31.00;97.00
31542;DHT22;18152;49.986;8.646;2023-08-20T14:33:36;31.10;97.10
31542;DHT22;18152;49.986;8.646;2023-08-20T14:36:02;30.80;95.50
31542;DHT22;18152;49.986;8.646;2023-08-20T14:38:31;30.70;96.20
31542;DHT22;18152;49.986;8.646;2023-08-20T14:41:03;30.80;97.80
31542;DHT22;18152;49.986;8.646;2023-08-20T14:43:29;30.90;95.20
31542;DHT22;18152;49.986;8.646;2023-08-20T14:45:55;30.80;99.90
31542;DHT22;18152;49.986;8.646;2023-08-20T14:48:21;30.70;96.40
31542;DHT22;18152;49.986;8.646;2023-08-20T14:50:47;30.70;98.60
31542;DHT22;18152;49.986;8.646;2023-08-20T14:53:13;30.50;94.10
31542;DHT22;18152;49.986;8.646;2023-08-20T14:55:39;30.60;92.90
31542;DHT22;18152;49.986;8.646;2023-08-20T14:58:05;30.50;96.50
31542;DHT22;18152;49.986;8.646;2023-08-20T15:00:33;30.10;99.20
31542;DHT22;18152;49.986;8.646;2023-08-20T15:02:59;30.00;97.30
31542;DHT22;18152;49.986;8.646;2023-08-20T15:05:24;29.90;99.90
31542;DHT22;18152;49.986;8.646;2023-08-20T15:07:50;30.00;95.90
31542;DHT22;18152;49.986;8.646;2023-08-20T15:10:15;30.00;95.40
31542;DHT22;18152;49.986;8.646;2023-08-20T15:12:41;30.00;96.40
31542;DHT22;18152;49.986;8.646;2023-08-20T15:15:07;30.10;94.70
31542;DHT22;18152;49.986;8.646;2023-08-20T15:17:36;30.30;95.70
31542;DHT22;18152;49.986;8.646;2023-08-20T15:20:01;30.20;98.50
31542;DHT22;18152;49.986;8.646;2023-08-20T15:22:30;30.10;95.20
31542;DHT22;18152;49.986;8.646;2023-08-20T15:24:56;30.00;94.50
31542;DHT22;18152;49.986;8.646;2023-08-20T15:27:23;30.10;95.20
31542;DHT22;18152;49.986;8.646;2023-08-20T15:29:50;30.10;94.20
31542;DHT22;18152;49.986;8.646;2023-08-20T15:32:15;30.10;93.60
31542;DHT22;18152;49.986;8.646;2023-08-20T15:34:41;30.00;93.50
31542;DHT22;18152;49.986;8.646;2023-08-20T15:37:06;29.90;93.80